Time;durP1;ratioP1;P1;durP2;ratioP2;P2;SDS_P1;SDS_P2;PMS_P1;PMS_P2;Temp;Humidity;BMP_temperature;BMP_pressure;BME280_temperature;BME280_humidity;BME280_pressure;Samples;Min_cycle;Max_cycle;Signal;HPM_P1;HPM_P2
2022/07/16 00:01:25;;;;;;;2.80;0.77;;;21.10;92.70;;;;;;5088124;28;20331;-70
2022/07/16 00:03:59;;;;;;;0.93;0.80;;;21.10;92.50;;;;;;5080073;28;20569;-68
2022/07/16 00:06:28;;;;;;;0.90;0.77;;;21.00;92.60;;;;;;5088134;28;20210;-69
2022/07/16 00:08:55;;;;;;;1.70;0.80;;;21.00;92.40;;;;;;5072658;28;20647;-69
2022/07/16 00:11:22;;;;;;;1.83;0.73;;;20.90;92.20;;;;;;5073018;28;20188;-69
2022/07/16 00:13:49;;;;;;;2.90;0.80;;;20.90;91.80;;;;;;5087731;28;20945;-69
2022/07/16 00:16:15;;;;;;;1.47;0.90;;;20.90;91.80;;;;;;5088214;28;20279;-69
2022/07/16 00:21:28;;;;;;;1.50;0.70;;;20.80;92.10;;;;;;5070491;28;20216;-68
2022/07/16 00:23:54;;;;;;;0.67;0.63;;;20.90;92.30;;;;;;5084007;28;20207;-68
2022/07/16 00:26:21;;;;;;;1.83;0.70;;;20.90;92.20;;;;;;5086054;28;20202;-70
2022/07/16 00:28:47;;;;;;;1.80;1.00;;;20.90;92.50;;;;;;5067931;28;20205;-69
2022/07/16 00:31:14;;;;;;;1.27;0.90;;;20.90;92.50;;;;;;5082692;28;20187;-70
2022/07/16 00:33:40;;;;;;;3.60;1.13;;;20.90;92.60;;;;;;5074806;28;20187;-70
2022/07/16 00:36:07;;;;;;;2.90;1.00;;;20.90;92.00;;;;;;5084696;28;20198;-69
2022/07/16 00:38:33;;;;;;;2.13;0.90;;;21.00;92.30;;;;;;5068489;28;20225;-71
2022/07/16 00:41:00;;;;;;;2.47;0.87;;;20.90;91.00;;;;;;5068408;28;20190;-69
2022/07/16 00:43:26;;;;;;;2.10;0.83;;;20.90;91.20;;;;;;5086861;28;20186;-69
2022/07/16 00:45:52;;;;;;;1.23;0.70;;;21.00;91.60;;;;;;5077931;28;20213;-70
2022/07/16 00:48:18;;;;;;;1.50;0.83;;;20.90;91.80;;;;;;5065058;28;20222;-70
2022/07/16 00:50:45;;;;;;;1.27;0.80;;;21.00;91.80;;;;;;5087883;28;20178;-70
2022/07/16 00:53:11;;;;;;;1.77;0.90;;;20.90;91.30;;;;;;5086046;28;20547;-68
2022/07/16 00:55:39;;;;;;;2.33;1.00;;;20.80;90.80;;;;;;5074695;28;20550;-68
2022/07/16 00:58:05;;;;;;;1.63;0.97;;;20.80;90.90;;;;;;5061135;28;20182;-68
2022/07/16 01:00:32;;;;;;;2.10;0.90;;;20.80;91.20;;;;;;5085533;28;20197;-69
2022/07/16 01:03:03;;;;;;;1.17;0.97;;;20.90;91.60;;;;;;5079281;28;20189;-69
2022/07/16 01:05:30;;;;;;;1.03;0.90;;;20.90;91.70;;;;;;5068440;28;20305;-70
2022/07/16 01:07:57;;;;;;;2.57;0.80;;;21.00;91.30;;;;;;5085121;28;20189;-70
2022/07/16 01:10:24;;;;;;;2.00;0.80;;;21.00;91.60;;;;;;5072071;28;20271;-69
2022/07/16 01:12:51;;;;;;;3.33;0.90;;;21.00;90.50;;;;;;5087431;28;20727;-69
2022/07/16 01:15:18;;;;;;;1.77;1.10;;;21.00;90.60;;;;;;5087502;28;20190;-70
2022/07/16 01:17:46;;;;;;;0.90;0.80;;;20.90;90.50;;;;;;5068362;28;20198;-69
2022/07/16 01:20:13;;;;;;;1.13;0.67;;;21.00;90.60;;;;;;5064743;28;20206;-69
2022/07/16 01:22:39;;;;;;;1.60;0.90;;;20.90;90.90;;;;;;5066292;28;20240;-70
2022/07/16 01:25:10;;;;;;;1.27;0.70;;;21.00;90.70;;;;;;5081859;28;20227;-70
2022/07/16 01:27:36;;;;;;;1.57;1.10;;;20.90;90.60;;;;;;5084805;28;20190;-69
2022/07/16 01:30:02;;;;;;;1.70;0.87;;;21.00;90.50;;;;;;5066299;28;20672;-70
2022/07/16 01:32:29;;;;;;;1.67;1.00;;;21.00;90.60;;;;;;5066462;28;20273;-69
2022/07/16 01:34:55;;;;;;;0.73;0.70;;;21.00;90.70;;;;;;5078318;28;21026;-68
2022/07/16 01:37:22;;;;;;;0.80;0.70;;;21.00;90.70;;;;;;5068982;28;20276;-68
2022/07/16 01:39:48;;;;;;;1.37;0.80;;;21.00;90.50;;;;;;5068738;28;20186;-70
2022/07/16 01:42:14;;;;;;;1.30;0.93;;;21.00;90.20;;;;;;5071461;28;20195;-69
2022/07/16 01:44:41;;;;;;;0.93;0.80;;;21.00;90.00;;;;;;5086716;28;20217;-69
2022/07/16 01:47:08;;;;;;;1.30;0.77;;;21.00;90.10;;;;;;5076506;28;20469;-70
2022/07/16 01:49:38;;;;;;;0.90;0.80;;;21.00;90.30;;;;;;5091060;28;20178;-70
2022/07/16 01:52:11;;;;;;;1.00;0.90;;;21.10;90.40;;;;;;5090024;28;20753;-70
2022/07/16 01:55:02;;;;;;;2.53;1.00;;;21.10;90.20;;;;;;5069014;28;20244;-69
2022/07/16 01:57:28;;;;;;;1.10;0.80;;;21.10;90.40;;;;;;5078514;28;20194;-69
2022/07/16 01:59:55;;;;;;;1.00;0.90;;;21.10;90.80;;;;;;5089465;28;20651;-70
2022/07/16 02:02:21;;;;;;;3.60;0.97;;;21.10;91.10;;;;;;5094563;28;20235;-69
2022/07/16 02:04:47;;;;;;;1.00;0.90;;;21.10;91.20;;;;;;5089732;28;20229;-69
2022/07/16 02:07:20;;;;;;;1.73;1.00;;;21.20;91.30;;;;;;5080985;28;20537;-69
2022/07/16 02:09:46;;;;;;;1.23;0.93;;;21.10;91.30;;;;;;5090479;28;20179;-69
2022/07/16 02:12:13;;;;;;;3.53;1.20;;;21.20;91.40;;;;;;5091269;28;20189;-69
2022/07/16 02:14:39;;;;;;;2.93;1.30;;;21.20;91.40;;;;;;5082248;28;20296;-70
2022/07/16 02:17:06;;;;;;;4.00;1.07;;;21.20;91.30;;;;;;5087820;28;20267;-69
2022/07/16 02:19:32;;;;;;;2.97;1.30;;;21.20;91.20;;;;;;5087929;28;20198;-68
2022/07/16 02:22:01;;;;;;;1.40;1.03;;;21.20;90.90;;;;;;5082089;28;20273;-69
2022/07/16 02:24:27;;;;;;;1.73;1.17;;;21.20;91.30;;;;;;5079751;28;20213;-68
2022/07/16 02:26:54;;;;;;;1.10;0.90;;;21.20;91.20;;;;;;5050772;28;20562;-69
2022/07/16 02:29:24;;;;;;;1.93;1.03;;;21.30;90.90;;;;;;5084073;28;20174;-69
2022/07/16 02:31:51;;;;;;;1.97;1.20;;;21.30;90.90;;;;;;5082029;28;20189;-69
2022/07/16 02:34:17;;;;;;;2.00;1.07;;;21.30;90.80;;;;;;5078418;28;20196;-69
2022/07/16 02:36:43;;;;;;;2.53;1.10;;;21.30;91.00;;;;;;5070351;28;20217;-69
2022/07/16 02:39:10;;;;;;;1.67;1.20;;;21.30;90.90;;;;;;5077948;28;20268;-71
2022/07/16 02:41:36;;;;;;;2.40;1.30;;;21.30;90.70;;;;;;5089115;28;20229;-69
2022/07/16 02:44:03;;;;;;;1.10;0.90;;;21.30;90.30;;;;;;5088276;28;20691;-70
2022/07/16 02:46:30;;;;;;;3.60;1.10;;;21.30;90.30;;;;;;5074011;28;20186;-68
2022/07/16 02:48:56;;;;;;;1.83;1.10;;;21.30;90.20;;;;;;5087954;28;20307;-69
2022/07/16 02:51:22;;;;;;;3.93;1.23;;;21.30;90.00;;;;;;5088307;28;20197;-69
2022/07/16 02:53:49;;;;;;;3.03;1.07;;;21.30;90.10;;;;;;5087359;28;20296;-69
2022/07/16 02:56:15;;;;;;;1.63;1.00;;;21.30;90.00;;;;;;5064955;28;20187;-71
2022/07/16 02:58:42;;;;;;;3.17;0.97;;;21.20;90.20;;;;;;5085530;28;20186;-70
2022/07/16 03:01:08;;;;;;;1.50;1.30;;;21.30;90.40;;;;;;5079985;28;20662;-69
2022/07/16 03:03:35;;;;;;;3.20;1.00;;;21.30;90.30;;;;;;5072545;28;20193;-71
2022/07/16 03:06:02;;;;;;;1.43;0.90;;;21.30;90.20;;;;;;5067766;28;20194;-70
2022/07/16 03:08:29;;;;;;;1.70;1.10;;;21.30;90.20;;;;;;5089761;28;20178;-69
2022/07/16 03:10:56;;;;;;;1.67;1.00;;;21.30;90.10;;;;;;5089498;28;20190;-68
2022/07/16 03:13:22;;;;;;;3.07;1.00;;;21.30;90.20;;;;;;5088649;28;20194;-70
2022/07/16 03:15:48;;;;;;;1.63;1.10;;;21.30;90.50;;;;;;5085320;28;20223;-71
2022/07/16 03:18:15;;;;;;;3.17;1.10;;;21.30;90.20;;;;;;5058670;28;20883;-68
2022/07/16 03:20:41;;;;;;;1.57;1.10;;;21.30;90.30;;;;;;5087621;28;20190;-70
2022/07/16 03:23:07;;;;;;;2.03;1.00;;;21.30;90.30;;;;;;5089006;28;20178;-70
2022/07/16 03:25:34;;;;;;;2.63;0.90;;;21.30;90.20;;;;;;5088250;28;20306;-69
2022/07/16 03:28:00;;;;;;;1.60;1.20;;;21.30;90.40;;;;;;5085037;28;20197;-69
2022/07/16 03:30:27;;;;;;;4.50;1.30;;;21.30;90.60;;;;;;5088870;28;20196;-68
2022/07/16 03:32:54;;;;;;;4.30;1.10;;;21.30;90.50;;;;;;5069155;28;20209;-72
2022/07/16 03:35:20;;;;;;;1.37;1.10;;;21.40;90.70;;;;;;5070675;28;20196;-69
2022/07/16 03:40:32;;;;;;;1.40;0.97;;;21.40;90.60;;;;;;5088200;28;20198;-69
2022/07/16 03:42:58;;;;;;;1.77;1.10;;;21.40;90.70;;;;;;5088161;28;20888;-70
2022/07/16 03:45:25;;;;;;;1.37;1.03;;;21.50;90.80;;;;;;5053629;28;20221;-69
2022/07/16 03:47:51;;;;;;;3.27;1.30;;;21.50;90.70;;;;;;5085304;28;20193;-68
2022/07/16 03:50:19;;;;;;;1.73;1.00;;;21.50;90.90;;;;;;5086577;28;20196;-69
2022/07/16 03:52:45;;;;;;;1.47;1.20;;;21.50;91.00;;;;;;5084528;28;20194;-69
2022/07/16 03:55:12;;;;;;;2.47;1.03;;;21.50;91.00;;;;;;5068538;28;20624;-68
2022/07/16 03:57:40;;;;;;;3.60;1.20;;;21.50;91.30;;;;;;5051164;28;20194;-70
2022/07/16 04:00:08;;;;;;;1.57;1.23;;;21.50;91.30;;;;;;5087733;28;20547;-68
2022/07/16 04:02:34;;;;;;;3.00;1.03;;;21.50;91.40;;;;;;5085319;28;20228;-68
2022/07/16 04:05:01;;;;;;;1.73;1.20;;;21.50;91.70;;;;;;5061648;28;20679;-71
2022/07/16 04:07:29;;;;;;;2.53;1.17;;;21.50;91.80;;;;;;5087672;28;20210;-70
2022/07/16 04:09:56;;;;;;;3.00;1.30;;;21.50;92.10;;;;;;5067185;28;20191;-70
2022/07/16 04:12:25;;;;;;;2.13;1.60;;;21.60;92.40;;;;;;5050759;28;20208;-70
2022/07/16 04:14:53;;;;;;;3.20;2.00;;;21.60;92.90;;;;;;5078913;28;20190;-68
2022/07/16 04:17:20;;;;;;;2.23;1.80;;;21.60;93.10;;;;;;5054891;28;20623;-68
2022/07/16 04:19:47;;;;;;;2.20;1.60;;;21.60;93.40;;;;;;5071334;28;20186;-69
2022/07/16 04:22:13;;;;;;;4.23;2.07;;;21.70;93.90;;;;;;5086638;28;20252;-71
2022/07/16 04:24:39;;;;;;;4.00;2.83;;;21.70;94.30;;;;;;5069009;28;20213;-69
2022/07/16 04:27:06;;;;;;;4.30;2.17;;;21.80;94.70;;;;;;5069103;28;20206;-71
2022/07/16 04:29:32;;;;;;;3.13;2.47;;;21.80;94.90;;;;;;5087431;28;20196;-69
2022/07/16 04:31:58;;;;;;;4.63;3.47;;;21.90;95.20;;;;;;5082130;28;20190;-69
2022/07/16 04:34:24;;;;;;;5.60;4.13;;;21.90;95.30;;;;;;5051292;28;20673;-69
2022/07/16 04:36:52;;;;;;;5.57;4.33;;;22.00;95.40;;;;;;5052045;28;20221;-70
2022/07/16 04:39:18;;;;;;;4.33;3.40;;;22.10;95.70;;;;;;5088333;28;20189;-69
2022/07/16 04:41:44;;;;;;;4.13;3.03;;;22.20;95.90;;;;;;5088438;28;20190;-69
2022/07/16 04:44:11;;;;;;;4.47;2.90;;;22.30;96.50;;;;;;5070228;28;20602;-69
2022/07/16 04:46:37;;;;;;;4.37;3.00;;;22.40;97.00;;;;;;5066087;28;20194;-69
2022/07/16 04:49:03;;;;;;;5.10;2.83;;;22.50;97.50;;;;;;5054171;28;20220;-70
2022/07/16 04:51:29;;;;;;;4.33;2.23;;;22.50;97.50;;;;;;5051517;28;20186;-69
2022/07/16 04:53:56;;;;;;;4.00;1.80;;;22.60;97.50;;;;;;5061358;28;20189;-69
2022/07/16 04:56:22;;;;;;;2.77;1.90;;;22.70;97.30;;;;;;5075535;28;20197;-69
2022/07/16 04:58:48;;;;;;;3.07;1.70;;;22.80;96.80;;;;;;5076770;28;20244;-70
2022/07/16 05:01:15;;;;;;;3.77;1.60;;;22.90;96.60;;;;;;5064013;28;20205;-71
2022/07/16 05:03:41;;;;;;;2.00;1.55;;;23.00;96.30;;;;;;5084918;28;20209;-69
2022/07/16 05:06:08;;;;;;;3.07;1.50;;;23.10;96.00;;;;;;5087317;28;20204;-69
2022/07/16 05:08:34;;;;;;;1.77;1.35;;;23.10;95.70;;;;;;5085570;28;20178;-69
2022/07/16 05:11:01;;;;;;;3.58;1.70;;;23.20;95.90;;;;;;5084271;28;20197;-69
2022/07/16 05:13:27;;;;;;;3.40;1.33;;;23.20;96.40;;;;;;5069468;28;20638;-72
2022/07/16 05:15:53;;;;;;;3.05;1.63;;;23.30;96.60;;;;;;5081595;28;20679;-71
2022/07/16 05:18:19;;;;;;;2.25;1.40;;;23.30;96.60;;;;;;5070105;28;20186;-70
2022/07/16 05:20:45;;;;;;;2.70;1.75;;;23.30;95.60;;;;;;5071706;28;20205;-69
2022/07/16 05:23:12;;;;;;;1.60;1.23;;;23.40;95.50;;;;;;5081823;28;20198;-69
2022/07/16 05:25:38;;;;;;;2.85;1.40;;;23.40;95.00;;;;;;5070252;28;20218;-69
2022/07/16 05:28:05;;;;;;;2.95;1.58;;;23.50;95.50;;;;;;5068253;28;20278;-70
2022/07/16 05:30:31;;;;;;;1.50;1.20;;;23.50;94.70;;;;;;5070969;28;20202;-69
2022/07/16 05:32:57;;;;;;;1.95;1.40;;;23.60;93.80;;;;;;5079734;28;20187;-70
2022/07/16 05:35:24;;;;;;;2.03;1.20;;;23.60;93.90;;;;;;5091417;28;20293;-69
2022/07/16 05:37:50;;;;;;;2.55;1.33;;;23.70;94.40;;;;;;5082203;28;20182;-70
2022/07/16 05:40:16;;;;;;;1.75;1.10;;;23.80;93.80;;;;;;5088939;28;20190;-69
2022/07/16 05:42:43;;;;;;;3.22;1.23;;;23.80;93.30;;;;;;5088253;28;20182;-71
2022/07/16 05:45:10;;;;;;;2.90;1.13;;;23.90;92.90;;;;;;5075556;28;20210;-69
2022/07/16 05:47:37;;;;;;;1.20;1.10;;;24.00;93.80;;;;;;5087941;28;20187;-70
2022/07/16 05:50:06;;;;;;;1.67;1.23;;;24.00;93.30;;;;;;5064882;28;20186;-69
2022/07/16 05:52:32;;;;;;;2.45;1.30;;;24.10;93.30;;;;;;5091471;28;20186;-71
2022/07/16 05:54:59;;;;;;;3.05;0.90;;;24.10;92.40;;;;;;5090804;28;20190;-70
2022/07/16 05:57:25;;;;;;;1.85;1.10;;;24.30;90.70;;;;;;5071796;28;20197;-70
2022/07/16 05:59:51;;;;;;;3.05;1.30;;;24.40;91.80;;;;;;5088231;28;20202;-69
2022/07/16 06:02:17;;;;;;;2.97;1.30;;;24.50;91.00;;;;;;5075707;28;20190;-69
2022/07/16 06:04:44;;;;;;;1.75;1.23;;;24.70;90.90;;;;;;5087518;28;20666;-69
2022/07/16 06:07:10;;;;;;;1.95;1.20;;;24.80;90.30;;;;;;5088576;28;20208;-70
2022/07/16 06:09:36;;;;;;;1.67;1.25;;;24.90;89.20;;;;;;5089309;28;20542;-69
2022/07/16 06:12:03;;;;;;;1.27;1.10;;;25.00;89.20;;;;;;5085849;28;20194;-70
2022/07/16 06:14:29;;;;;;;1.98;1.23;;;25.20;88.80;;;;;;5076029;28;20936;-71
2022/07/16 06:16:55;;;;;;;1.58;1.17;;;25.30;90.10;;;;;;5071136;28;20305;-71
2022/07/16 06:19:22;;;;;;;3.20;1.58;;;25.40;90.30;;;;;;5083472;28;20199;-69
2022/07/16 06:21:49;;;;;;;4.28;1.40;;;25.50;90.50;;;;;;5087789;28;20201;-70
2022/07/16 06:24:16;;;;;;;2.33;1.30;;;25.50;90.50;;;;;;5070175;28;20241;-73
2022/07/16 06:26:46;;;;;;;1.50;1.25;;;25.70;90.60;;;;;;5069468;28;20198;-70
2022/07/16 06:29:17;;;;;;;3.67;1.50;;;25.80;91.10;;;;;;5053165;28;20277;-70
2022/07/16 06:31:45;;;;;;;4.88;1.80;;;25.90;92.40;;;;;;5077201;28;20543;-71
2022/07/16 06:34:12;;;;;;;5.95;1.90;;;26.10;93.80;;;;;;5070428;28;20178;-72
2022/07/16 06:36:38;;;;;;;5.97;1.90;;;26.10;94.00;;;;;;5068493;28;20183;-70
2022/07/16 06:39:05;;;;;;;7.68;1.92;;;26.20;94.80;;;;;;5070512;28;20273;-71
2022/07/16 06:41:32;;;;;;;6.82;2.10;;;26.30;95.80;;;;;;5072364;28;20213;-70
2022/07/16 06:43:58;;;;;;;3.03;1.67;;;26.30;97.50;;;;;;5070385;28;20202;-71
2022/07/16 06:46:25;;;;;;;3.30;1.67;;;26.40;95.20;;;;;;5057806;28;20600;-68
2022/07/16 06:48:51;;;;;;;7.00;1.77;;;26.50;93.60;;;;;;5067446;28;20259;-69
2022/07/16 06:51:18;;;;;;;3.22;1.50;;;26.50;92.40;;;;;;5070878;28;20186;-67
2022/07/16 06:53:44;;;;;;;3.42;1.70;;;26.60;93.70;;;;;;5062990;28;20192;-70
2022/07/16 06:56:10;;;;;;;4.75;1.90;;;26.70;94.40;;;;;;5047346;28;20663;-67
2022/07/16 06:58:37;;;;;;;4.15;1.70;;;26.80;93.80;;;;;;5068547;28;20619;-69
2022/07/16 07:01:03;;;;;;;4.97;1.95;;;26.90;93.70;;;;;;5051073;28;20516;-68
2022/07/16 07:03:30;;;;;;;6.90;1.67;;;26.90;95.00;;;;;;5085955;28;20178;-67
2022/07/16 07:05:56;;;;;;;2.83;1.65;;;27.00;95.40;;;;;;5065008;28;20210;-67
2022/07/16 07:08:23;;;;;;;3.97;1.50;;;27.10;95.10;;;;;;5060289;28;20197;-67
2022/07/16 07:10:49;;;;;;;6.15;2.20;;;27.20;94.00;;;;;;5065175;28;20408;-68
2022/07/16 07:13:15;;;;;;;5.95;2.30;;;27.30;94.40;;;;;;5069855;28;20321;-70
2022/07/16 07:15:42;;;;;;;9.10;2.40;;;27.40;94.90;;;;;;5080837;28;20205;-70
2022/07/16 07:18:09;;;;;;;4.32;1.85;;;27.40;94.90;;;;;;5084548;28;20281;-69
2022/07/16 07:20:35;;;;;;;11.18;2.60;;;27.50;95.60;;;;;;5068212;28;20640;-68
2022/07/16 07:23:02;;;;;;;9.98;2.35;;;27.60;98.40;;;;;;5059383;28;20187;-70
2022/07/16 07:25:30;;;;;;;6.88;2.47;;;27.60;99.30;;;;;;5059731;28;20214;-68
2022/07/16 07:27:56;;;;;;;8.07;2.50;;;27.70;99.10;;;;;;5066497;28;21141;-67
2022/07/16 07:30:23;;;;;;;5.88;2.30;;;27.90;99.60;;;;;;5065891;28;20193;-69
2022/07/16 07:32:49;;;;;;;4.63;1.92;;;27.90;99.90;;;;;;5058862;28;20217;-69
2022/07/16 07:35:16;;;;;;;9.50;2.42;;;28.00;99.90;;;;;;5047602;28;20196;-70
2022/07/16 07:37:42;;;;;;;8.50;2.22;;;28.10;98.70;;;;;;5085220;28;20205;-69
2022/07/16 07:40:09;;;;;;;6.47;2.40;;;28.10;98.70;;;;;;5082283;28;20210;-68
2022/07/16 07:42:36;;;;;;;5.28;2.30;;;28.20;99.90;;;;;;5082405;28;20269;-70
2022/07/16 07:45:04;;;;;;;9.43;2.28;;;28.20;99.90;;;;;;5072821;28;20438;-71
2022/07/16 07:47:32;;;;;;;12.55;2.50;;;28.20;99.90;;;;;;5087610;28;20299;-70
2022/07/16 07:50:03;;;;;;;6.82;2.22;;;28.30;98.30;;;;;;5058533;28;20293;-71
2022/07/16 07:52:29;;;;;;;6.78;2.30;;;28.40;99.30;;;;;;5057955;28;20197;-72
2022/07/16 07:54:57;;;;;;;11.50;2.53;;;28.50;99.90;;;;;;5067552;28;20190;-70
2022/07/16 07:57:23;;;;;;;8.60;2.35;;;28.50;99.80;;;;;;5080134;28;20255;-70
2022/07/16 07:59:50;;;;;;;12.60;2.75;;;28.50;99.70;;;;;;5074565;28;20238;-70
2022/07/16 08:02:16;;;;;;;7.18;2.38;;;28.60;99.40;;;;;;5074185;28;20221;-70
2022/07/16 08:04:43;;;;;;;6.05;2.60;;;28.70;98.30;;;;;;5083544;28;20668;-72
2022/07/16 08:07:10;;;;;;;9.25;2.95;;;28.90;99.70;;;;;;5086439;28;20934;-71
2022/07/16 08:09:36;;;;;;;10.95;3.10;;;28.90;99.90;;;;;;5085371;28;20214;-70
2022/07/16 08:12:03;;;;;;;10.85;2.75;;;29.00;99.90;;;;;;5086845;28;20281;-71
2022/07/16 08:14:30;;;;;;;7.70;2.65;;;29.00;99.90;;;;;;5085664;28;20225;-71
2022/07/16 08:16:58;;;;;;;6.82;2.78;;;29.10;99.90;;;;;;5072895;28;20212;-71
2022/07/16 08:19:25;;;;;;;8.77;2.35;;;29.20;99.90;;;;;;5086971;28;20271;-70
2022/07/16 08:21:53;;;;;;;4.90;2.22;;;29.20;98.60;;;;;;5068070;28;20194;-70
2022/07/16 08:27:07;;;;;;;8.40;2.80;;;29.30;99.20;;;;;;5084287;28;20909;-70
2022/07/16 08:29:34;;;;;;;7.68;2.47;;;29.30;99.40;;;;;;5083443;28;20213;-69
2022/07/16 08:32:01;;;;;;;6.70;2.70;;;29.40;99.90;;;;;;5067725;28;20198;-70
2022/07/16 08:34:27;;;;;;;9.40;2.88;;;29.50;99.90;;;;;;5066685;28;20182;-70
2022/07/16 08:36:54;;;;;;;6.30;2.40;;;29.60;99.90;;;;;;5077598;28;20264;-71
2022/07/16 08:39:21;;;;;;;6.95;2.30;;;29.70;99.50;;;;;;5069638;28;20915;-70
2022/07/16 08:41:49;;;;;;;12.93;2.58;;;29.90;98.70;;;;;;5067871;28;20866;-69
2022/07/16 08:44:16;;;;;;;8.55;1.90;;;30.00;98.30;;;;;;5087603;28;20202;-70
2022/07/16 08:46:43;;;;;;;9.77;2.60;;;30.10;96.70;;;;;;5087921;28;20190;-72
2022/07/16 08:49:10;;;;;;;12.52;2.78;;;30.20;98.60;;;;;;5080348;28;20702;-70
2022/07/16 08:51:39;;;;;;;5.82;2.45;;;30.30;98.80;;;;;;5076174;28;20213;-70
2022/07/16 08:54:20;;;;;;;10.32;2.38;;;30.40;99.30;;;;;;5085837;28;20190;-71
2022/07/16 08:56:49;;;;;;;5.82;2.47;;;30.50;98.30;;;;;;5080346;28;20242;-72
2022/07/16 08:59:16;;;;;;;8.15;2.30;;;30.50;97.80;;;;;;5079279;28;20239;-71
2022/07/16 09:01:42;;;;;;;12.80;3.20;;;30.60;97.80;;;;;;5066655;28;20281;-72
2022/07/16 09:04:10;;;;;;;8.27;2.60;;;30.70;98.80;;;;;;5079855;28;20659;-70
2022/07/16 09:06:36;;;;;;;6.72;2.70;;;30.70;97.90;;;;;;5062597;28;20216;-70
2022/07/16 09:09:03;;;;;;;10.55;2.95;;;30.90;99.90;;;;;;5066663;28;20214;-72
2022/07/16 09:11:35;;;;;;;8.82;3.33;;;31.00;99.90;;;;;;5081636;28;20269;-70
2022/07/16 09:14:15;;;;;;;10.88;2.67;;;31.00;99.80;;;;;;5081089;28;20260;-69
2022/07/16 09:16:45;;;;;;;13.30;2.92;;;31.20;99.60;;;;;;5057692;28;20225;-70
2022/07/16 09:19:20;;;;;;;11.43;2.58;;;31.20;99.50;;;;;;5047068;28;20189;-69
2022/07/16 09:22:00;;;;;;;6.05;2.25;;;31.30;98.00;;;;;;5076778;28;20185;-70
2022/07/16 09:24:46;;;;;;;7.63;2.50;;;31.40;97.40;;;;;;5078740;28;20211;-69
2022/07/16 09:27:15;;;;;;;9.00;3.10;;;31.50;98.90;;;;;;5079397;28;20650;-69
2022/07/16 09:29:49;;;;;;;12.80;2.78;;;31.50;99.70;;;;;;5064131;28;20189;-69
2022/07/16 09:32:28;;;;;;;5.50;2.10;;;31.70;98.40;;;;;;5053137;28;20217;-69
2022/07/16 09:35:21;;;;;;;6.93;2.30;;;31.80;98.20;;;;;;5086484;28;20276;-69
2022/07/16 09:37:59;;;;;;;8.57;2.80;;;31.90;96.40;;;;;;5078114;28;20198;-71
2022/07/16 09:40:38;;;;;;;7.65;2.58;;;31.90;98.30;;;;;;5067770;28;20644;-71
2022/07/16 09:43:19;;;;;;;10.18;2.92;;;31.90;97.50;;;;;;5080520;28;20915;-70
2022/07/16 09:46:06;;;;;;;12.77;2.95;;;32.20;97.60;;;;;;5084268;28;20742;-68
2022/07/16 09:48:35;;;;;;;11.60;2.88;;;32.30;98.10;;;;;;5082184;28;20268;-68
2022/07/16 09:51:26;;;;;;;11.82;2.92;;;32.30;98.70;;;;;;5086951;28;20199;-70
2022/07/16 09:53:55;;;;;;;9.50;2.95;;;32.40;98.70;;;;;;5068203;28;20263;-69
2022/07/16 09:56:27;;;;;;;8.88;3.08;;;32.50;98.20;;;;;;5073245;28;20611;-70
2022/07/16 09:58:57;;;;;;;8.88;2.88;;;32.50;98.20;;;;;;5085697;28;20186;-68
2022/07/16 10:01:24;;;;;;;7.20;2.55;;;32.50;98.60;;;;;;5087609;28;20261;-69
2022/07/16 10:03:52;;;;;;;7.68;2.72;;;32.30;98.20;;;;;;5087732;28;20194;-69
2022/07/16 10:06:20;;;;;;;8.85;3.15;;;32.40;99.10;;;;;;5066124;28;20263;-70
2022/07/16 10:08:46;;;;;;;10.68;2.90;;;32.50;98.50;;;;;;5063989;28;20642;-68
2022/07/16 10:11:14;;;;;;;11.48;2.80;;;32.40;97.60;;;;;;5066988;28;20193;-68
2022/07/16 10:13:44;;;;;;;9.65;2.90;;;32.40;98.10;;;;;;5063123;28;20279;-68
2022/07/16 10:16:11;;;;;;;6.63;2.72;;;32.60;98.50;;;;;;5085505;28;20226;-68
2022/07/16 10:18:47;;;;;;;7.85;2.88;;;32.50;98.40;;;;;;5072351;28;20193;-70
2022/07/16 10:21:23;;;;;;;10.48;2.95;;;32.60;98.10;;;;;;5061820;28;20259;-70
2022/07/16 10:24:04;;;;;;;12.45;2.90;;;32.60;98.40;;;;;;5077142;28;20205;-70
2022/07/16 10:26:35;;;;;;;12.77;3.13;;;32.80;97.50;;;;;;5084822;28;20190;-67
2022/07/16 10:29:03;;;;;;;6.32;2.40;;;32.80;97.90;;;;;;5079961;28;20190;-70
2022/07/16 10:32:27;;;;;;;7.05;2.50;;;32.70;98.20;;;;;;5081708;28;20186;-71
2022/07/16 10:34:40;;;;;;;12.32;3.08;;;32.80;97.60;;;;;;5072269;28;20221;-68
2022/07/16 10:37:25;;;;;;;6.70;2.22;;;32.80;97.50;;;;;;5077912;28;20273;-67
2022/07/16 10:40:04;;;;;;;9.40;2.58;;;32.90;97.20;;;;;;5082520;28;20469;-68
2022/07/16 10:42:31;;;;;;;10.00;2.83;;;33.00;95.80;;;;;;5051883;28;20930;-69
2022/07/16 10:44:57;;;;;;;8.75;2.58;;;33.00;96.10;;;;;;5061642;28;20578;-70
2022/07/16 10:47:47;;;;;;;8.77;2.60;;;32.90;94.90;;;;;;5084817;28;20833;-68
2022/07/16 10:50:22;;;;;;;8.13;2.70;;;32.90;96.10;;;;;;5079921;28;20723;-68
2022/07/16 10:52:52;;;;;;;4.47;2.40;;;33.00;95.20;;;;;;5070081;28;20193;-68
2022/07/16 10:55:32;;;;;;;6.63;2.15;;;32.90;94.90;;;;;;5087668;28;20194;-70
2022/07/16 10:58:00;;;;;;;12.82;2.80;;;33.00;94.90;;;;;;5059567;28;20211;-69
2022/07/16 11:00:27;;;;;;;6.57;2.30;;;33.10;95.40;;;;;;5083291;28;21031;-69
2022/07/16 11:03:01;;;;;;;4.07;1.95;;;32.90;94.90;;;;;;5083345;28;20272;-70
2022/07/16 11:05:31;;;;;;;6.88;2.50;;;32.70;94.70;;;;;;5054573;28;20305;-68
2022/07/16 11:08:10;;;;;;;6.38;2.33;;;32.70;95.40;;;;;;5080263;28;20539;-68
2022/07/16 11:10:40;;;;;;;7.68;2.40;;;32.70;94.60;;;;;;5065343;28;20188;-68
2022/07/16 11:13:17;;;;;;;10.57;2.72;;;32.80;94.40;;;;;;5087494;28;20198;-68
2022/07/16 11:15:45;;;;;;;11.55;2.30;;;32.80;94.40;;;;;;5068961;28;20255;-68
2022/07/16 11:18:17;;;;;;;5.75;2.13;;;32.90;93.80;;;;;;5057790;28;20190;-69
2022/07/16 11:20:44;;;;;;;13.60;2.83;;;32.90;93.60;;;;;;5076343;28;20622;-69
2022/07/16 11:23:15;;;;;;;4.68;2.20;;;32.80;93.10;;;;;;5084806;28;20706;-67
2022/07/16 11:26:00;;;;;;;6.13;2.13;;;32.80;92.10;;;;;;5066367;28;20222;-69
2022/07/16 11:28:27;;;;;;;4.32;1.80;;;32.80;92.40;;;;;;5067397;28;20281;-69
2022/07/16 11:31:03;;;;;;;5.40;2.30;;;32.80;92.60;;;;;;5066412;28;20216;-69
2022/07/16 11:33:35;;;;;;;4.85;1.90;;;32.70;92.50;;;;;;5079425;28;20194;-68
2022/07/16 11:36:13;;;;;;;4.65;2.05;;;32.90;91.70;;;;;;5067971;28;20550;-69
2022/07/16 11:38:39;;;;;;;4.65;2.00;;;32.80;91.50;;;;;;5087513;28;20200;-69
2022/07/16 11:41:08;;;;;;;8.88;1.90;;;32.90;91.20;;;;;;5086285;28;20233;-69
2022/07/16 11:43:35;;;;;;;9.20;2.20;;;32.80;89.80;;;;;;5073093;28;20194;-67
2022/07/16 11:46:02;;;;;;;5.85;2.22;;;32.90;90.90;;;;;;5085649;28;20206;-69
2022/07/16 11:48:37;;;;;;;6.82;2.15;;;32.80;90.80;;;;;;5065810;28;20300;-68
2022/07/16 11:51:09;;;;;;;5.75;2.00;;;32.80;90.20;;;;;;5058384;28;20538;-68
2022/07/16 11:53:37;;;;;;;8.18;2.00;;;32.80;90.50;;;;;;5069878;28;20290;-68
2022/07/16 11:56:06;;;;;;;3.95;1.80;;;32.80;89.80;;;;;;5079723;28;20777;-69
2022/07/16 11:58:35;;;;;;;10.00;2.13;;;32.80;88.10;;;;;;5062369;28;20240;-68
2022/07/16 12:01:02;;;;;;;11.65;2.00;;;32.90;88.40;;;;;;5064274;28;20601;-69
2022/07/16 12:03:29;;;;;;;4.22;1.80;;;33.00;88.30;;;;;;5064554;28;20731;-70
2022/07/16 12:06:07;;;;;;;5.90;1.92;;;33.00;89.80;;;;;;5066116;28;20690;-69
2022/07/16 12:08:36;;;;;;;6.93;2.00;;;33.00;87.20;;;;;;5080735;28;20186;-69
2022/07/16 12:11:06;;;;;;;7.18;2.00;;;33.00;86.50;;;;;;5082666;28;20194;-68
2022/07/16 12:13:39;;;;;;;9.02;2.15;;;33.00;85.40;;;;;;5079493;28;20201;-70
2022/07/16 12:16:05;;;;;;;7.35;2.30;;;33.10;85.80;;;;;;5072286;28;20301;-68
2022/07/16 12:18:32;;;;;;;11.93;2.22;;;33.10;85.90;;;;;;5079529;28;20212;-70
2022/07/16 12:21:28;;;;;;;9.50;2.00;;;33.10;86.70;;;;;;5064578;28;20667;-69
2022/07/16 12:23:55;;;;;;;14.75;2.00;;;33.00;85.60;;;;;;5065629;28;20186;-68
2022/07/16 12:26:37;;;;;;;4.28;1.90;;;33.10;82.30;;;;;;5069496;28;20205;-69
2022/07/16 12:29:11;;;;;;;4.22;2.13;;;33.00;84.20;;;;;;5077409;28;20316;-70
2022/07/16 12:31:38;;;;;;;6.43;2.35;;;32.90;83.10;;;;;;5064666;28;20230;-68
2022/07/16 12:34:05;;;;;;;10.32;2.55;;;32.80;84.40;;;;;;5086868;28;20193;-69
2022/07/16 12:36:38;;;;;;;7.35;2.47;;;32.80;84.30;;;;;;5084790;28;20273;-69
2022/07/16 12:39:17;;;;;;;6.97;2.20;;;32.90;86.60;;;;;;5065991;28;20220;-69
2022/07/16 12:41:48;;;;;;;4.55;2.20;;;32.90;86.80;;;;;;5060823;28;20182;-70
2022/07/16 12:44:18;;;;;;;6.60;2.85;;;32.80;88.80;;;;;;5061304;28;20206;-69
2022/07/16 12:46:49;;;;;;;10.90;2.60;;;32.80;86.20;;;;;;5061635;28;20275;-70
2022/07/16 12:49:22;;;;;;;8.23;2.63;;;32.80;88.10;;;;;;5059592;28;20221;-68
2022/07/16 12:51:56;;;;;;;6.88;2.72;;;32.60;90.20;;;;;;5064606;28;20197;-68
2022/07/16 12:54:23;;;;;;;5.50;2.90;;;32.70;89.10;;;;;;5074776;28;20322;-69
2022/07/16 12:59:35;;;;;;;10.10;2.97;;;32.50;89.80;;;;;;5075633;28;20182;-68
2022/07/16 13:02:05;;;;;;;6.95;2.70;;;32.50;90.20;;;;;;5070417;28;20190;-68
2022/07/16 13:04:32;;;;;;;12.02;3.10;;;32.60;89.80;;;;;;5081273;28;20733;-69